Time;durP1;ratioP1;P1;durP2;ratioP2;P2;SDS_P1;SDS_P2;PMS_P1;PMS_P2;Temp;Humidity;BMP_temperature;BMP_pressure;BME280_temperature;BME280_humidity;BME280_pressure;Samples;Min_cycle;Max_cycle;Signal;HPM_P1;HPM_P2
2022/05/27 00:02:15;;;;;;;0.77;0.43;;;18.40;47.60;;;;;;2503520;53;20972;-75
2022/05/27 00:04:42;;;;;;;1.75;0.52;;;18.30;47.50;;;;;;2346480;53;21674;-76
2022/05/27 00:07:08;;;;;;;0.73;0.43;;;18.30;47.60;;;;;;2408701;53;20911;-76
2022/05/27 00:09:35;;;;;;;1.20;0.43;;;18.30;47.60;;;;;;2337672;54;21072;-77
2022/05/27 00:12:20;;;;;;;2.20;0.50;;;18.30;47.70;;;;;;2339657;54;21067;-77
2022/05/27 00:14:47;;;;;;;1.08;0.50;;;18.30;48.10;;;;;;2340812;54;20956;-75
2022/05/27 00:17:16;;;;;;;1.48;0.50;;;18.30;47.70;;;;;;2409530;53;21009;-77
2022/05/27 00:19:43;;;;;;;1.17;0.40;;;18.20;47.70;;;;;;2385871;53;20963;-76
2022/05/27 00:22:09;;;;;;;2.83;0.57;;;18.20;47.70;;;;;;2568165;53;20934;-77
2022/05/27 00:24:36;;;;;;;0.82;0.37;;;18.20;47.70;;;;;;2503878;53;20952;-77
2022/05/27 00:27:05;;;;;;;1.62;0.47;;;18.20;47.80;;;;;;2345899;53;20915;-76
2022/05/27 00:29:32;;;;;;;0.75;0.40;;;18.20;47.90;;;;;;2339998;53;22028;-76
2022/05/27 00:32:12;;;;;;;1.05;0.50;;;18.10;47.90;;;;;;2340036;54;20920;-75
2022/05/27 00:34:38;;;;;;;2.45;0.40;;;18.10;47.90;;;;;;2340201;54;21753;-76
2022/05/27 00:37:05;;;;;;;1.40;0.50;;;18.10;47.90;;;;;;2340211;53;20995;-79
2022/05/27 00:39:38;;;;;;;0.93;0.40;;;18.10;48.00;;;;;;2364327;53;20976;-77
2022/05/27 00:42:04;;;;;;;1.62;0.60;;;18.10;48.10;;;;;;2340428;54;21047;-76
2022/05/27 00:44:30;;;;;;;0.90;0.47;;;18.10;48.10;;;;;;2340411;54;21096;-77
2022/05/27 00:47:03;;;;;;;1.25;0.50;;;18.10;48.10;;;;;;2570710;53;20932;-77
2022/05/27 00:49:29;;;;;;;0.98;0.40;;;18.10;48.20;;;;;;2428859;53;21016;-79
2022/05/27 00:52:08;;;;;;;1.75;0.47;;;18.00;48.10;;;;;;2391915;53;20995;-76
2022/05/27 00:54:39;;;;;;;1.12;0.50;;;18.00;48.40;;;;;;2358426;53;20928;-77
2022/05/27 00:57:14;;;;;;;1.23;0.55;;;18.00;48.20;;;;;;2340089;54;20991;-78
2022/05/27 00:59:47;;;;;;;0.65;0.37;;;18.00;48.40;;;;;;2423036;53;20940;-76
2022/05/27 01:02:14;;;;;;;1.45;0.82;;;18.00;48.40;;;;;;2345594;53;21297;-77
2022/05/27 01:04:40;;;;;;;0.60;0.37;;;17.90;48.20;;;;;;2348817;53;21071;-76
2022/05/27 01:07:06;;;;;;;2.83;0.60;;;17.90;48.30;;;;;;2379793;53;20907;-77
2022/05/27 01:09:34;;;;;;;1.37;0.47;;;17.80;48.30;;;;;;2536801;53;20950;-77
2022/05/27 01:12:22;;;;;;;2.65;0.55;;;17.80;48.30;;;;;;2349748;53;21128;-78
2022/05/27 01:16:27;;;;;;;1.70;0.55;;;17.80;48.50;;;;;;2338231;53;21012;-77
2022/05/27 01:22:11;;;;;;;1.08;0.40;;;17.80;48.40;;;;;;2390108;53;21420;-76
2022/05/27 01:24:57;;;;;;;1.10;0.50;;;17.80;48.60;;;;;;2340481;54;21464;-76
2022/05/27 01:31:09;;;;;;;1.30;0.60;;;17.80;48.80;;;;;;2339499;54;21472;-75
2022/05/27 01:34:12;;;;;;;1.05;0.40;;;17.70;48.80;;;;;;2448850;53;20988;-76
2022/05/27 01:36:42;;;;;;;;;;;17.70;48.70;;;;;;2354035;53;20924;-75
2022/05/27 01:39:17;;;;;;;3.75;0.55;;;17.70;48.60;;;;;;2340357;54;20059;-74
2022/05/27 01:42:05;;;;;;;1.23;0.50;;;17.70;48.30;;;;;;2342266;54;20991;-76
2022/05/27 01:44:40;;;;;;;1.37;0.50;;;17.60;48.80;;;;;;2432509;53;20980;-76
2022/05/27 01:47:10;;;;;;;1.23;0.50;;;17.60;48.60;;;;;;2345334;53;20976;-75
2022/05/27 01:49:39;;;;;;;1.00;0.50;;;17.60;48.60;;;;;;2340941;54;21072;-79
2022/05/27 01:54:00;;;;;;;0.85;0.50;;;17.50;48.60;;;;;;2435316;53;20972;-76
2022/05/27 01:56:48;;;;;;;1.30;0.55;;;17.50;49.00;;;;;;2419807;53;20985;-76
2022/05/27 02:00:56;;;;;;;1.87;0.60;;;17.50;48.60;;;;;;2352900;53;20924;-76
2022/05/27 02:03:34;;;;;;;1.27;0.52;;;17.40;49.40;;;;;;2360429;53;20988;-76
2022/05/27 02:06:12;;;;;;;1.37;0.57;;;17.40;48.90;;;;;;2361003;53;20939;-77
2022/05/27 02:08:58;;;;;;;1.50;0.57;;;17.40;48.90;;;;;;2340052;54;20959;-79
2022/05/27 02:11:25;;;;;;;1.65;0.70;;;17.30;48.90;;;;;;2340732;53;20964;-78
2022/05/27 02:14:14;;;;;;;1.80;0.80;;;17.30;49.00;;;;;;2375435;53;20901;-77
2022/05/27 02:16:50;;;;;;;1.45;0.55;;;17.30;49.50;;;;;;2382017;53;21433;-78
2022/05/27 02:19:33;;;;;;;2.58;0.93;;;17.20;49.20;;;;;;2406471;53;20897;-80
2022/05/27 02:22:04;;;;;;;3.00;0.80;;;17.30;49.80;;;;;;2412446;53;21047;-78
2022/05/27 02:24:39;;;;;;;2.78;0.77;;;17.20;49.40;;;;;;2353999;53;21008;-75
2022/05/27 02:27:08;;;;;;;2.08;0.80;;;17.20;49.40;;;;;;2366813;53;20948;-76
2022/05/27 02:29:35;;;;;;;3.55;0.90;;;17.20;49.50;;;;;;2340158;54;21044;-77
2022/05/27 02:32:07;;;;;;;2.00;0.80;;;17.20;49.50;;;;;;2368609;53;21323;-76
2022/05/27 02:37:39;;;;;;;3.70;0.93;;;17.20;49.70;;;;;;2460801;53;20135;-76
2022/05/27 02:40:10;;;;;;;1.52;0.62;;;17.20;49.50;;;;;;2391534;53;21778;-76
2022/05/27 02:43:15;;;;;;;2.25;0.70;;;17.20;49.40;;;;;;2340732;53;21013;-76
2022/05/27 02:47:13;;;;;;;2.20;0.70;;;17.10;49.90;;;;;;2366544;53;21003;-76
2022/05/27 02:53:05;;;;;;;1.60;0.70;;;17.10;50.00;;;;;;2340742;54;20952;-76
2022/05/27 02:56:18;;;;;;;2.80;0.80;;;17.20;49.80;;;;;;2343498;53;21254;-75
2022/05/27 02:58:44;;;;;;;;;;;17.10;49.60;;;;;;2351565;53;20931;-76
2022/05/27 03:01:11;;;;;;;1.52;0.60;;;17.10;49.80;;;;;;2341233;54;20066;-76
2022/05/27 03:03:38;;;;;;;3.70;0.60;;;17.10;49.40;;;;;;2340277;54;21630;-77
2022/05/27 03:09:47;;;;;;;1.25;0.60;;;17.10;49.60;;;;;;2339905;53;20936;-77
2022/05/27 03:12:29;;;;;;;1.55;0.57;;;17.10;50.20;;;;;;2340749;54;20928;-77
2022/05/27 03:15:18;;;;;;;2.22;0.82;;;17.00;49.80;;;;;;2340949;54;20956;-76
2022/05/27 03:20:40;;;;;;;1.55;0.60;;;17.00;50.00;;;;;;2428254;53;20956;-76
2022/05/27 03:25:04;;;;;;;2.03;0.60;;;17.00;50.00;;;;;;2423223;53;20943;-76
2022/05/27 03:30:31;;;;;;;2.72;0.60;;;17.00;50.00;;;;;;2340049;53;22102;-75
2022/05/27 03:33:25;;;;;;;2.22;0.70;;;16.90;49.70;;;;;;2340421;53;21051;-76
2022/05/27 03:38:58;;;;;;;1.33;0.60;;;16.90;49.80;;;;;;2341091;53;21331;-77
2022/05/27 03:41:29;;;;;;;2.12;0.80;;;16.90;50.10;;;;;;2339742;53;21030;-76
2022/05/27 03:43:56;;;;;;;2.55;1.00;;;16.90;50.00;;;;;;2347731;53;21834;-77
2022/05/27 03:46:40;;;;;;;2.58;1.00;;;16.80;50.10;;;;;;2465965;53;21039;-79
2022/05/27 03:49:08;;;;;;;1.92;0.82;;;16.90;50.80;;;;;;2342858;53;20936;-79
2022/05/27 03:51:38;;;;;;;3.15;1.00;;;16.90;50.50;;;;;;2340383;53;21020;-77
2022/05/27 03:54:05;;;;;;;1.98;0.80;;;16.90;50.70;;;;;;2341428;54;20983;-77
2022/05/27 03:56:34;;;;;;;2.37;1.00;;;16.90;50.80;;;;;;2324845;54;20960;-79
2022/05/27 03:59:00;;;;;;;2.85;0.90;;;16.90;50.90;;;;;;2340555;54;21011;-79
2022/05/27 04:01:29;;;;;;;2.10;1.10;;;16.90;51.00;;;;;;2340241;54;21086;-76
2022/05/27 04:04:00;;;;;;;4.80;0.98;;;16.90;51.00;;;;;;2340622;54;20995;-77
2022/05/27 04:06:27;;;;;;;2.35;1.00;;;17.00;51.30;;;;;;2381236;53;21036;-76
2022/05/27 04:08:59;;;;;;;2.33;1.00;;;17.00;51.20;;;;;;2355159;53;21476;-76
2022/05/27 04:11:25;;;;;;;;;;;17.00;51.20;;;;;;2359143;53;20964;-76
2022/05/27 04:13:52;;;;;;;2.10;0.98;;;17.10;51.50;;;;;;2357512;53;20079;-78
2022/05/27 04:16:18;;;;;;;2.50;1.00;;;17.10;51.00;;;;;;2340226;54;20949;-77
2022/05/27 04:18:45;;;;;;;1.80;0.82;;;17.20;51.20;;;;;;2340613;54;21027;-77
2022/05/27 04:21:11;;;;;;;2.30;0.98;;;17.20;51.30;;;;;;2398162;53;20941;-74
2022/05/27 04:23:38;;;;;;;4.40;1.15;;;17.20;51.40;;;;;;2340849;54;20941;-77
2022/05/27 04:26:04;;;;;;;2.72;1.08;;;17.30;51.50;;;;;;2340703;54;20964;-77
2022/05/27 04:28:31;;;;;;;2.58;1.08;;;17.30;51.60;;;;;;2340689;54;21007;-78
2022/05/27 04:30:57;;;;;;;2.10;1.00;;;17.40;51.70;;;;;;2424667;53;21492;-78
2022/05/27 04:33:28;;;;;;;2.03;1.00;;;17.40;51.60;;;;;;2339605;54;20936;-77
2022/05/27 04:35:55;;;;;;;2.30;1.15;;;17.40;52.30;;;;;;2345789;53;21026;-77
2022/05/27 04:38:22;;;;;;;3.35;1.80;;;17.50;51.80;;;;;;2373379;53;20927;-76
2022/05/27 04:40:48;;;;;;;3.85;2.15;;;17.50;51.80;;;;;;2340275;53;20916;-77
2022/05/27 04:43:15;;;;;;;5.35;2.92;;;17.60;51.80;;;;;;2379047;53;20991;-76
2022/05/27 04:45:41;;;;;;;3.47;2.00;;;17.50;51.70;;;;;;2342370;53;20979;-76
2022/05/27 04:48:09;;;;;;;3.62;2.03;;;17.70;51.80;;;;;;2587687;53;21046;-77
2022/05/27 04:50:36;;;;;;;3.53;1.95;;;17.70;51.90;;;;;;2342105;53;20908;-79
2022/05/27 04:53:02;;;;;;;3.47;1.62;;;17.70;51.90;;;;;;2340898;54;20948;-77
2022/05/27 04:55:30;;;;;;;3.42;1.50;;;17.80;52.00;;;;;;2355011;53;21948;-77
2022/05/27 04:57:59;;;;;;;3.58;1.48;;;17.80;52.00;;;;;;2589947;53;20936;-76
2022/05/27 05:00:30;;;;;;;2.55;1.25;;;17.90;52.00;;;;;;2344153;53;20994;-77
2022/05/27 05:02:57;;;;;;;2.60;1.10;;;17.90;52.10;;;;;;2405222;53;21032;-78
2022/05/27 05:05:25;;;;;;;2.83;1.23;;;18.00;52.10;;;;;;2346409;53;20967;-78
2022/05/27 05:08:34;;;;;;;2.10;1.00;;;18.00;52.10;;;;;;2344540;53;21003;-76
2022/05/27 05:11:01;;;;;;;3.20;1.00;;;18.10;52.70;;;;;;2342191;53;21011;-76
2022/05/27 05:13:29;;;;;;;2.12;1.08;;;18.10;52.20;;;;;;2414745;53;20939;-77
2022/05/27 05:15:55;;;;;;;2.22;0.95;;;18.20;52.20;;;;;;2518560;53;20958;-77
2022/05/27 05:18:21;;;;;;;2.05;0.80;;;18.20;52.20;;;;;;2346473;53;20928;-77
2022/05/27 05:20:48;;;;;;;2.55;1.05;;;18.20;52.10;;;;;;2350775;53;21010;-78
2022/05/27 05:23:14;;;;;;;2.40;1.00;;;18.30;52.20;;;;;;2446148;53;20920;-76
2022/05/27 05:25:40;;;;;;;2.12;0.93;;;18.40;52.30;;;;;;2455480;53;20967;-77
2022/05/27 05:28:06;;;;;;;1.52;0.70;;;18.40;52.30;;;;;;2369386;53;21002;-77
2022/05/27 05:30:34;;;;;;;2.00;0.88;;;18.40;52.20;;;;;;2345885;53;21058;-77
2022/05/27 05:33:00;;;;;;;1.40;0.68;;;18.50;52.30;;;;;;2518866;53;21000;-77
2022/05/27 05:35:27;;;;;;;1.90;0.70;;;18.50;52.20;;;;;;2406931;53;20907;-76
2022/05/27 05:37:53;;;;;;;1.80;0.73;;;18.50;52.20;;;;;;2422577;53;21537;-78
2022/05/27 05:40:19;;;;;;;1.52;0.70;;;18.60;52.30;;;;;;2586202;53;21503;-78
2022/05/27 05:42:47;;;;;;;1.62;0.80;;;18.60;52.40;;;;;;2497260;53;21004;-77
2022/05/27 05:45:14;;;;;;;2.15;0.85;;;18.70;52.40;;;;;;2352226;53;20995;-78
2022/05/27 05:47:41;;;;;;;1.58;0.70;;;18.70;52.40;;;;;;2403349;53;21386;-76
2022/05/27 05:50:07;;;;;;;2.12;0.90;;;18.80;52.40;;;;;;2340540;54;20936;-78
2022/05/27 05:52:34;;;;;;;2.97;1.00;;;18.80;52.40;;;;;;2339988;54;20959;-79
2022/05/27 05:55:00;;;;;;;1.70;0.65;;;18.80;52.30;;;;;;2340313;54;20940;-76
2022/05/27 05:57:26;;;;;;;2.33;0.90;;;18.80;52.30;;;;;;2340241;54;20940;-78
2022/05/27 05:59:55;;;;;;;3.03;0.80;;;18.90;52.40;;;;;;2340000;54;20999;-77
2022/05/27 06:02:24;;;;;;;3.22;1.00;;;18.90;52.40;;;;;;2493851;53;21777;-76
2022/05/27 06:04:51;;;;;;;3.67;0.73;;;19.00;52.40;;;;;;2347612;53;21010;-78
2022/05/27 06:07:17;;;;;;;1.73;0.77;;;19.00;52.30;;;;;;2340715;53;20948;-77
2022/05/27 06:09:43;;;;;;;2.17;0.90;;;19.00;52.20;;;;;;2340318;54;20955;-77
2022/05/27 06:12:15;;;;;;;2.70;0.77;;;19.10;52.30;;;;;;2340289;54;20940;-76
2022/05/27 06:14:41;;;;;;;2.07;0.70;;;19.10;52.20;;;;;;2340860;54;21000;-76
2022/05/27 06:17:07;;;;;;;3.62;0.90;;;19.20;52.20;;;;;;2345748;53;21066;-76
2022/05/27 06:19:37;;;;;;;1.90;0.70;;;19.20;52.20;;;;;;2340957;53;20989;-79
2022/05/27 06:22:08;;;;;;;1.95;0.60;;;19.20;52.20;;;;;;2339751;54;20931;-76
2022/05/27 06:24:35;;;;;;;1.05;0.52;;;19.30;52.30;;;;;;2588000;53;20954;-76
2022/05/27 06:27:05;;;;;;;1.55;0.65;;;19.30;52.30;;;;;;2588860;53;20932;-78
2022/05/27 06:36:14;;;;;;;1.70;0.82;;;19.50;52.40;;;;;;2340038;54;21012;-78
2022/05/27 06:38:41;;;;;;;4.57;0.90;;;19.50;52.30;;;;;;2340487;54;20980;-78
2022/05/27 06:41:07;;;;;;;2.25;0.90;;;19.60;52.20;;;;;;2378549;53;20939;-77
2022/05/27 06:43:33;;;;;;;1.65;0.70;;;19.60;52.20;;;;;;2340202;54;20909;-77
2022/05/27 06:46:00;;;;;;;2.00;0.82;;;19.70;52.20;;;;;;2340841;53;20980;-76
2022/05/27 06:48:29;;;;;;;1.58;0.65;;;19.70;52.20;;;;;;2582666;53;22102;-79
2022/05/27 06:50:55;;;;;;;2.85;0.82;;;19.80;52.30;;;;;;2340452;53;21015;-78
2022/05/27 06:53:21;;;;;;;1.83;0.88;;;19.80;52.30;;;;;;2340342;54;21035;-77
2022/05/27 06:55:48;;;;;;;3.35;0.98;;;19.90;52.50;;;;;;2340669;54;20984;-78
2022/05/27 06:58:18;;;;;;;2.12;0.80;;;20.00;52.40;;;;;;2345150;53;21995;-76
2022/05/27 07:00:44;;;;;;;1.80;0.73;;;20.10;52.30;;;;;;2341900;53;20999;-78
2022/05/27 07:03:11;;;;;;;1.70;0.80;;;20.10;52.10;;;;;;2432074;53;20967;-78
2022/05/27 07:05:37;;;;;;;2.87;1.10;;;20.20;52.20;;;;;;2340925;54;20964;-80
2022/05/27 07:08:03;;;;;;;1.90;1.00;;;20.20;52.10;;;;;;2374613;54;20907;-78
2022/05/27 07:10:30;;;;;;;3.87;1.10;;;20.30;52.10;;;;;;2395806;53;20955;-77
2022/05/27 07:12:59;;;;;;;2.22;0.88;;;20.40;52.10;;;;;;2341222;54;20948;-78
2022/05/27 07:15:29;;;;;;;3.87;1.20;;;20.40;51.90;;;;;;2433814;53;20944;-80
2022/05/27 07:17:56;;;;;;;2.40;0.90;;;20.50;51.90;;;;;;2346162;53;20939;-76
2022/05/27 07:20:23;;;;;;;2.22;0.90;;;20.50;51.80;;;;;;2369682;53;21716;-77
2022/05/27 07:22:52;;;;;;;2.12;0.95;;;20.50;51.90;;;;;;2355708;53;21833;-78
2022/05/27 07:25:21;;;;;;;1.65;0.73;;;20.50;51.90;;;;;;2339675;53;21765;-77
2022/05/27 07:27:47;;;;;;;1.90;0.80;;;20.60;52.00;;;;;;2427383;53;21033;-75
2022/05/27 07:30:16;;;;;;;1.73;0.95;;;20.60;51.90;;;;;;2480351;53;21003;-76
2022/05/27 07:32:43;;;;;;;1.37;0.62;;;20.70;51.90;;;;;;2350800;53;20983;-75
2022/05/27 07:35:10;;;;;;;2.40;1.00;;;20.70;51.80;;;;;;2437408;53;20955;-76
2022/05/27 07:37:36;;;;;;;2.83;0.90;;;20.80;51.70;;;;;;2343112;53;20960;-76
2022/05/27 07:40:03;;;;;;;3.33;0.90;;;20.80;51.60;;;;;;2357139;53;20950;-75
2022/05/27 07:42:32;;;;;;;4.20;1.08;;;20.90;51.60;;;;;;2344377;53;20955;-76
2022/05/27 07:44:58;;;;;;;2.17;1.00;;;20.90;51.50;;;;;;2511665;53;21500;-76
2022/05/27 07:47:25;;;;;;;2.62;0.70;;;21.00;51.40;;;;;;2345183;53;21071;-77
2022/05/27 07:49:52;;;;;;;1.87;0.80;;;21.00;51.30;;;;;;2342222;53;21006;-76
2022/05/27 07:52:18;;;;;;;2.17;0.90;;;21.10;51.30;;;;;;2339378;53;20979;-77
2022/05/27 07:54:44;;;;;;;2.83;0.70;;;21.10;51.10;;;;;;2431847;53;21887;-75
2022/05/27 07:57:25;;;;;;;1.92;0.80;;;21.10;51.00;;;;;;2348517;53;21007;-78
2022/05/27 07:59:59;;;;;;;2.05;0.60;;;21.20;50.80;;;;;;2340524;54;20915;-77
2022/05/27 08:02:25;;;;;;;1.95;0.70;;;21.20;50.70;;;;;;2503099;53;21010;-77
2022/05/27 08:04:53;;;;;;;2.00;0.62;;;21.20;50.60;;;;;;2386123;53;21461;-78
2022/05/27 08:07:20;;;;;;;1.17;0.50;;;21.30;50.60;;;;;;2378454;53;21027;-77
2022/05/27 08:09:47;;;;;;;2.12;0.68;;;21.30;50.60;;;;;;2339085;54;20908;-77
2022/05/27 08:12:15;;;;;;;2.15;0.60;;;21.30;50.70;;;;;;2339649;54;20956;-75
2022/05/27 08:14:44;;;;;;;2.78;0.70;;;21.40;50.70;;;;;;2365184;53;20939;-77
2022/05/27 08:17:11;;;;;;;1.05;0.50;;;21.40;50.60;;;;;;2340975;53;20964;-78
2022/05/27 08:19:37;;;;;;;0.98;0.47;;;21.50;50.60;;;;;;2349257;53;20939;-76
2022/05/27 08:22:04;;;;;;;1.25;0.45;;;21.50;50.40;;;;;;2385092;53;20989;-77
2022/05/27 08:24:30;;;;;;;2.85;0.70;;;21.60;50.40;;;;;;2585159;53;20960;-77
2022/05/27 08:26:57;;;;;;;1.40;0.60;;;21.60;50.20;;;;;;2475240;53;20988;-76
2022/05/27 08:29:23;;;;;;;1.05;0.52;;;21.70;50.20;;;;;;2345141;53;20959;-78
2022/05/27 08:31:49;;;;;;;2.40;0.70;;;21.70;50.10;;;;;;2340260;54;21019;-76
2022/05/27 08:39:48;;;;;;;2.47;0.68;;;21.80;49.50;;;;;;2410979;53;21361;-78
2022/05/27 08:42:53;;;;;;;1.87;0.60;;;21.80;49.50;;;;;;2339575;53;21478;-74
2022/05/27 08:45:37;;;;;;;2.37;0.80;;;21.80;49.00;;;;;;2324608;54;21000;-76
2022/05/27 08:48:08;;;;;;;2.62;0.80;;;21.90;48.90;;;;;;2428192;53;20924;-77
2022/05/27 08:51:38;;;;;;;1.50;0.60;;;21.90;48.70;;;;;;2343546;54;20989;-73
2022/05/27 08:54:10;;;;;;;2.70;0.70;;;21.90;48.70;;;;;;2435360;53;20986;-78
2022/05/27 09:00:06;;;;;;;1.50;0.70;;;21.90;48.90;;;;;;2346311;53;21802;-75
2022/05/27 09:02:38;;;;;;;4.20;0.85;;;21.90;48.60;;;;;;2344076;54;20941;-77
2022/05/27 09:05:27;;;;;;;;;;;21.90;48.50;;;;;;2538427;53;21341;-77
2022/05/27 09:07:58;;;;;;;1.70;0.70;;;22.00;48.70;;;;;;2473195;53;20721;-77
2022/05/27 09:10:59;;;;;;;2.72;0.50;;;22.00;48.40;;;;;;2497755;53;21066;-76
2022/05/27 09:17:01;;;;;;;3.00;0.82;;;22.00;48.80;;;;;;2343496;53;21058;-77
2022/05/27 09:20:01;;;;;;;1.70;0.70;;;22.10;48.20;;;;;;2365566;54;20965;-77
2022/05/27 09:22:42;;;;;;;1.58;0.60;;;22.10;47.80;;;;;;2346495;53;21437;-78
2022/05/27 09:25:28;;;;;;;1.00;0.50;;;22.20;47.80;;;;;;2351393;53;20998;-78
2022/05/27 09:28:37;;;;;;;1.45;0.60;;;22.20;47.60;;;;;;2366706;53;20967;-77
2022/05/27 09:31:04;;;;;;;1.37;0.60;;;22.20;47.50;;;;;;2411076;53;20957;-76
2022/05/27 09:33:31;;;;;;;2.30;0.70;;;22.20;47.70;;;;;;2339778;54;21027;-76
2022/05/27 09:36:05;;;;;;;1.58;0.60;;;22.20;47.50;;;;;;2483666;53;20994;-78
2022/05/27 09:38:33;;;;;;;2.15;0.70;;;22.30;47.40;;;;;;2494553;53;21111;-77
2022/05/27 09:42:45;;;;;;;3.35;0.73;;;22.30;47.40;;;;;;2405036;53;20996;-79
2022/05/27 09:45:13;;;;;;;1.55;0.52;;;22.40;47.40;;;;;;2397775;53;21005;-76
2022/05/27 09:47:40;;;;;;;1.77;0.80;;;22.40;47.40;;;;;;2400301;53;21116;-77
2022/05/27 09:50:28;;;;;;;1.40;0.70;;;22.40;47.30;;;;;;2351831;53;20951;-76
2022/05/27 09:52:56;;;;;;;1.65;0.60;;;22.50;46.80;;;;;;2415190;53;20915;-75
2022/05/27 09:55:35;;;;;;;3.12;0.60;;;22.50;47.10;;;;;;2364053;53;21401;-77
2022/05/27 09:58:04;;;;;;;2.45;0.70;;;22.50;46.90;;;;;;2340781;54;21456;-72
2022/05/27 10:00:35;;;;;;;1.85;0.70;;;22.50;46.80;;;;;;2340577;54;20999;-79
2022/05/27 10:04:58;;;;;;;1.65;0.65;;;22.60;46.80;;;;;;2518173;53;21003;-77
2022/05/27 10:07:32;;;;;;;1.58;0.55;;;22.60;46.80;;;;;;2344182;53;21718;-76
2022/05/27 10:10:28;;;;;;;1.55;0.68;;;22.70;46.90;;;;;;2347299;53;20955;-75
2022/05/27 10:13:12;;;;;;;1.65;0.50;;;22.70;46.60;;;;;;2381040;53;21377;-74
2022/05/27 10:15:38;;;;;;;1.40;0.52;;;22.70;46.70;;;;;;2342033;53;20972;-75
2022/05/27 10:18:20;;;;;;;1.73;0.62;;;22.70;46.80;;;;;;2345516;53;20963;-75
2022/05/27 10:21:03;;;;;;;2.15;0.60;;;22.80;46.70;;;;;;2396248;54;20936;-75
2022/05/27 10:23:35;;;;;;;1.30;0.60;;;22.90;46.90;;;;;;2349226;53;20930;-78
2022/05/27 10:26:40;;;;;;;4.50;0.60;;;22.90;47.20;;;;;;2341499;53;20999;-77
2022/05/27 10:29:11;;;;;;;1.40;0.35;;;23.00;46.90;;;;;;2340651;54;21015;-75
2022/05/27 10:31:37;;;;;;;2.67;0.60;;;23.10;47.20;;;;;;2339928;53;20908;-75
2022/05/27 10:34:04;;;;;;;2.25;0.68;;;23.20;47.60;;;;;;2390874;53;20939;-74
2022/05/27 10:37:06;;;;;;;1.17;0.62;;;23.20;47.40;;;;;;2345032;53;20955;-77
2022/05/27 10:39:47;;;;;;;1.60;0.50;;;23.40;47.10;;;;;;2340137;53;21019;-75
2022/05/27 10:43:12;;;;;;;2.05;0.70;;;23.50;47.50;;;;;;2339879;53;20988;-76
2022/05/27 10:45:40;;;;;;;1.10;0.47;;;23.60;47.30;;;;;;2334895;53;21912;-77
2022/05/27 10:49:46;;;;;;;1.77;0.70;;;23.70;47.30;;;;;;2341482;53;20932;-76
2022/05/27 10:52:31;;;;;;;2.62;0.82;;;23.90;47.10;;;;;;2340640;53;20948;-74
2022/05/27 10:55:18;;;;;;;1.80;0.62;;;24.00;46.70;;;;;;2418651;53;20941;-74
2022/05/27 11:02:21;;;;;;;3.30;0.68;;;24.10;46.40;;;;;;2460868;53;20955;-75
2022/05/27 11:08:22;;;;;;;2.90;0.62;;;24.10;46.20;;;;;;2502127;53;1976296;-74
2022/05/27 11:11:20;;;;;;;1.20;0.50;;;24.30;46.00;;;;;;2340576;54;20948;-78
2022/05/27 11:17:46;;;;;;;1.90;0.68;;;24.30;45.80;;;;;;2344008;54;20943;-74
2022/05/27 11:20:33;;;;;;;1.65;0.57;;;24.40;46.00;;;;;;2385809;53;20948;-77
2022/05/27 11:29:38;;;;;;;2.65;0.65;;;24.60;45.60;;;;;;2325416;54;20948;-75
2022/05/27 11:34:47;;;;;;;2.50;0.50;;;24.60;45.90;;;;;;2367912;53;20936;-78
2022/05/27 11:37:32;;;;;;;0.82;0.40;;;24.80;45.80;;;;;;2400512;53;20923;-76
2022/05/27 11:42:43;;;;;;;3.03;0.60;;;24.80;45.00;;;;;;2429260;53;20960;-75
2022/05/27 11:45:50;;;;;;;2.08;0.50;;;24.90;45.20;;;;;;2583804;53;20924;-73
2022/05/27 11:48:46;;;;;;;1.75;0.52;;;24.90;45.00;;;;;;2336609;53;21477;-72
2022/05/27 11:51:31;;;;;;;1.20;0.50;;;25.00;44.90;;;;;;2345558;53;20938;-72
2022/05/27 11:54:29;;;;;;;2.20;0.50;;;25.00;44.80;;;;;;2340938;53;20940;-72
2022/05/27 11:57:27;;;;;;;1.23;0.47;;;25.00;44.80;;;;;;2340172;54;20964;-72
2022/05/27 12:00:10;;;;;;;1.23;0.50;;;25.10;44.70;;;;;;2340499;53;20988;-75
2022/05/27 12:10:19;;;;;;;2.05;0.70;;;25.10;44.70;;;;;;2361393;53;21023;-73
2022/05/27 12:16:23;;;;;;;0.98;0.30;;;25.30;44.70;;;;;;2324713;54;20984;-72
2022/05/27 12:19:07;;;;;;;0.70;0.40;;;25.40;44.50;;;;;;2589809;53;21368;-72
2022/05/27 12:21:37;;;;;;;2.22;0.62;;;25.40;44.20;;;;;;2374942;53;21453;-73
2022/05/27 12:24:25;;;;;;;2.42;0.62;;;25.40;44.10;;;;;;2586228;53;21437;-72
2022/05/27 12:26:53;;;;;;;1.23;0.60;;;25.40;44.70;;;;;;2340497;54;20952;-71
2022/05/27 12:29:23;;;;;;;1.23;0.40;;;25.40;44.00;;;;;;2377906;53;21814;-73
2022/05/27 12:31:50;;;;;;;1.15;0.45;;;25.40;43.80;;;;;;2340715;54;21009;-74
2022/05/27 12:36:12;;;;;;;1.85;0.60;;;25.40;43.80;;;;;;2340191;54;20929;-73
2022/05/27 12:38:44;;;;;;;1.25;0.40;;;25.50;43.80;;;;;;2340581;54;20995;-73
2022/05/27 12:41:12;;;;;;;1.35;0.55;;;25.50;43.70;;;;;;2344064;53;21420;-73
2022/05/27 12:44:01;;;;;;;1.77;0.60;;;25.50;43.70;;;;;;2344113;53;20901;-72
2022/05/27 12:46:42;;;;;;;1.00;0.60;;;25.50;44.00;;;;;;2340369;54;21607;-71
2022/05/27 12:49:41;;;;;;;1.15;0.47;;;25.50;43.30;;;;;;2340005;54;20952;-72
2022/05/27 12:52:40;;;;;;;0.98;0.50;;;25.50;42.90;;;;;;2346823;53;21494;-74
2022/05/27 12:55:10;;;;;;;0.90;0.50;;;25.50;43.20;;;;;;2344317;53;20952;-72
2022/05/27 13:00:59;;;;;;;1.52;0.52;;;25.50;43.10;;;;;;2340545;54;21027;-71
2022/05/27 13:04:42;;;;;;;1.45;0.50;;;25.50;43.10;;;;;;2412177;53;21058;-72
2022/05/27 13:07:09;;;;;;;1.37;0.68;;;25.50;43.00;;;;;;2340975;54;20932;-73
2022/05/27 13:09:38;;;;;;;0.80;0.47;;;25.60;43.40;;;;;;2340145;54;20932;-72
2022/05/27 13:12:04;;;;;;;0.68;0.37;;;25.60;43.10;;;;;;2344953;53;20995;-73
2022/05/27 13:14:45;;;;;;;2.85;0.68;;;25.60;43.00;;;;;;2383538;53;20951;-71
2022/05/27 13:17:35;;;;;;;1.00;0.60;;;25.60;42.70;;;;;;2341021;53;20956;-74
2022/05/27 13:20:24;;;;;;;6.03;0.60;;;25.60;42.70;;;;;;2342167;53;20940;-72
2022/05/27 13:23:10;;;;;;;0.90;0.40;;;25.70;42.80;;;;;;2589834;53;20917;-75
2022/05/27 13:25:39;;;;;;;1.02;0.50;;;25.70;42.60;;;;;;2342223;53;20992;-75
2022/05/27 13:28:22;;;;;;;1.15;0.43;;;25.70;42.70;;;;;;2339686;57;21699;-71
2022/05/27 13:30:56;;;;;;;1.60;0.50;;;25.70;42.60;;;;;;2515524;53;21087;-71
2022/05/27 13:33:28;;;;;;;1.75;0.50;;;25.70;42.50;;;;;;2334296;53;20994;-72
2022/05/27 13:35:56;;;;;;;1.50;0.60;;;25.70;42.90;;;;;;2342804;53;21095;-72
2022/05/27 13:38:32;;;;;;;0.90;0.40;;;25.70;42.50;;;;;;2342736;53;20943;-73
2022/05/27 13:40:58;;;;;;;2.87;0.60;;;25.70;42.30;;;;;;2347107;53;20928;-74
2022/05/27 13:43:34;;;;;;;1.40;0.57;;;25.70;42.40;;;;;;2470686;53;21486;-71
2022/05/27 13:46:21;;;;;;;0.60;0.30;;;25.80;42.40;;;;;;2424428;53;22082;-71
2022/05/27 13:48:58;;;;;;;0.93;0.40;;;25.80;42.50;;;;;;2343720;53;20926;-72
2022/05/27 13:51:25;;;;;;;0.80;0.40;;;25.80;42.30;;;;;;2352459;53;20943;-73
2022/05/27 13:53:51;;;;;;;1.37;0.47;;;25.80;42.40;;;;;;2578788;53;20947;-70
2022/05/27 13:56:23;;;;;;;0.80;0.35;;;25.80;42.40;;;;;;2339013;53;20936;-71
2022/05/27 13:59:11;;;;;;;0.88;0.40;;;25.90;42.20;;;;;;2339916;54;20932;-70
2022/05/27 14:01:47;;;;;;;2.30;0.47;;;25.90;42.00;;;;;;2443328;53;20949;-71
2022/05/27 14:05:17;;;;;;;1.45;0.52;;;25.90;41.70;;;;;;2323974;54;20989;-70
2022/05/27 14:07:46;;;;;;;0.65;0.30;;;25.80;41.60;;;;;;2340535;54;20960;-73
2022/05/27 14:10:41;;;;;;;0.77;0.40;;;25.80;41.60;;;;;;2357680;53;21011;-73
2022/05/27 14:13:40;;;;;;;0.98;0.40;;;25.80;41.40;;;;;;2340534;53;21015;-71
2022/05/27 14:16:10;;;;;;;1.62;0.50;;;25.70;41.40;;;;;;2581958;53;21480;-72
2022/05/27 14:18:36;;;;;;;1.12;0.40;;;25.70;41.50;;;;;;2351053;53;20974;-74
2022/05/27 14:23:56;;;;;;;0.57;0.30;;;25.50;41.50;;;;;;2548812;53;20980;-73
2022/05/27 14:26:22;;;;;;;0.43;0.20;;;25.50;41.70;;;;;;2339875;54;21043;-73
2022/05/27 14:28:50;;;;;;;1.35;0.50;;;25.50;41.90;;;;;;2439391;53;20967;-70
2022/05/27 14:34:49;;;;;;;0.90;0.43;;;25.40;41.60;;;;;;2583647;53;21040;-74
2022/05/27 14:37:30;;;;;;;0.75;0.20;;;25.40;41.80;;;;;;2446294;53;21016;-72
2022/05/27 14:40:09;;;;;;;0.82;0.40;;;25.40;41.80;;;;;;2475310;53;21679;-70
2022/05/27 14:42:36;;;;;;;0.85;0.30;;;25.40;41.60;;;;;;2375493;53;21782;-71
2022/05/27 14:45:02;;;;;;;1.98;0.43;;;25.40;41.60;;;;;;2340588;54;20951;-73
2022/05/27 14:47:32;;;;;;;0.50;0.30;;;25.40;41.50;;;;;;2340495;54;21729;-73
2022/05/27 14:49:59;;;;;;;1.25;0.50;;;25.40;41.40;;;;;;2325447;54;21441;-72
2022/05/27 14:52:42;;;;;;;0.82;0.30;;;25.30;41.20;;;;;;2339617;53;20949;-73
2022/05/27 14:55:18;;;;;;;;;;;25.30;40.90;;;;;;2344221;54;21003;-73
2022/05/27 14:57:55;;;;;;;0.60;0.22;;;25.30;41.30;;;;;;2340756;54;20078;-73
2022/05/27 15:00:30;;;;;;;0.73;0.30;;;25.20;41.50;;;;;;2502066;53;21059;-75
2022/05/27 15:04:06;;;;;;;2.15;0.30;;;25.20;40.90;;;;;;2586128;53;20968;-74
2022/05/27 15:06:35;;;;;;;0.65;0.20;;;25.10;41.00;;;;;;2467488;53;20948;-75
2022/05/27 15:10:03;;;;;;;0.45;0.20;;;25.00;41.20;;;;;;2340343;54;20917;-72